Time;durP1;ratioP1;P1;durP2;ratioP2;P2;SDS_P1;SDS_P2;PMS_P1;PMS_P2;Temp;Humidity;BMP_temperature;BMP_pressure;BME280_temperature;BME280_humidity;BME280_pressure;Samples;Min_cycle;Max_cycle;Signal;HPM_P1;HPM_P2
2023/04/30 00:01:29;;;;;;;10.00;4.80;;;;;;;7.94;58.75;99721.67;105858;1254;72913;-69
2023/04/30 00:03:55;;;;;;;9.20;4.00;;;;;;;7.92;58.98;99721.42;105775;1259;70376;-70
2023/04/30 00:06:22;;;;;;;7.50;4.60;;;;;;;7.91;59.20;99722.58;105963;1258;71984;-70
2023/04/30 00:08:49;;;;;;;10.10;5.00;;;;;;;7.91;59.36;99723.66;105908;1255;60707;-71
2023/04/30 00:11:16;;;;;;;7.90;4.10;;;;;;;7.91;59.54;99724.30;105848;1254;60393;-70
2023/04/30 00:13:43;;;;;;;5.90;4.40;;;;;;;7.92;59.63;99719.91;105885;1258;71831;-68
2023/04/30 00:16:10;;;;;;;8.00;4.30;;;;;;;7.93;59.70;99723.42;105958;1254;71261;-69
2023/04/30 00:18:37;;;;;;;8.70;4.50;;;;;;;7.92;59.76;99715.60;105884;1254;73938;-70
2023/04/30 00:21:04;;;;;;;9.50;4.50;;;;;;;7.90;59.88;99714.02;105972;1256;60447;-68
2023/04/30 00:23:31;;;;;;;7.10;4.30;;;;;;;7.89;59.80;99704.60;105959;1256;60482;-69
2023/04/30 00:25:57;;;;;;;8.00;4.30;;;;;;;7.89;59.71;99704.02;106003;1254;74927;-69
2023/04/30 00:28:25;;;;;;;9.90;4.70;;;;;;;7.87;59.66;99701.09;105916;1256;70439;-69
2023/04/30 00:30:52;;;;;;;10.10;4.90;;;;;;;7.84;59.72;99699.54;105823;1255;71759;-69
2023/04/30 00:33:19;;;;;;;7.00;4.70;;;;;;;7.84;59.80;99695.70;105523;1260;60587;-69
2023/04/30 00:35:46;;;;;;;9.20;4.20;;;;;;;7.83;59.88;99695.40;105973;1254;60524;-69
2023/04/30 00:38:12;;;;;;;8.70;4.40;;;;;;;7.82;59.89;99691.13;105890;1254;72703;-71
2023/04/30 00:40:40;;;;;;;7.30;4.20;;;;;;;7.79;60.21;99690.96;105756;1260;69920;-71
2023/04/30 00:43:07;;;;;;;8.60;4.30;;;;;;;7.73;60.25;99688.00;105871;1254;70959;-68
2023/04/30 00:45:34;;;;;;;6.90;4.10;;;;;;;7.69;60.47;99683.82;105939;1254;60556;-68
2023/04/30 00:48:01;;;;;;;7.40;4.50;;;;;;;7.64;60.61;99683.95;105810;1254;60401;-67
2023/04/30 00:50:28;;;;;;;7.50;4.30;;;;;;;7.62;60.63;99683.75;105839;1257;74543;-71
2023/04/30 00:52:56;;;;;;;6.20;4.40;;;;;;;7.61;60.76;99679.09;106017;1260;71756;-70
2023/04/30 00:55:23;;;;;;;8.40;4.50;;;;;;;7.56;60.96;99676.56;105573;1254;72442;-70
2023/04/30 00:57:50;;;;;;;8.00;4.50;;;;;;;7.47;61.17;99672.00;105730;1254;60916;-71
2023/04/30 01:00:16;;;;;;;6.50;4.10;;;;;;;7.40;61.25;99670.27;105616;1268;60376;-70
2023/04/30 01:02:45;;;;;;;6.70;4.10;;;;;;;7.36;61.50;99672.39;105884;1264;74805;-69
2023/04/30 01:05:12;;;;;;;7.90;4.30;;;;;;;7.34;61.39;99666.75;105689;1254;70679;-72
2023/04/30 01:07:43;;;;;;;7.70;4.90;;;;;;;7.32;61.55;99666.41;105734;1260;71939;-68
2023/04/30 01:10:14;;;;;;;8.40;4.80;;;;;;;7.32;61.64;99666.80;105900;1261;60592;-69
2023/04/30 01:13:14;;;;;;;6.70;4.00;;;;;;;7.33;61.82;99666.02;105833;1254;61231;-66
2023/04/30 01:15:54;;;;;;;7.10;3.80;;;;;;;7.35;61.41;99662.66;105832;1256;74070;-68
2023/04/30 01:18:27;;;;;;;6.70;3.90;;;;;;;7.36;61.04;99665.69;105847;1254;71594;-72
2023/04/30 01:21:02;;;;;;;7.00;4.20;;;;;;;7.37;60.97;99662.06;105872;1255;71631;-68
2023/04/30 01:23:54;;;;;;;6.50;4.10;;;;;;;7.38;61.03;99661.66;105870;1258;60401;-70
2023/04/30 01:26:52;;;;;;;6.20;3.90;;;;;;;7.39;61.11;99661.88;105851;1259;60341;-69
2023/04/30 01:29:19;;;;;;;7.30;3.90;;;;;;;7.38;61.54;99659.36;105896;1257;71471;-68
2023/04/30 01:31:46;;;;;;;6.40;4.00;;;;;;;7.33;61.55;99661.56;105723;1260;68660;-70
2023/04/30 01:34:12;;;;;;;5.00;3.60;;;;;;;7.29;61.64;99660.73;105742;1256;71578;-69
2023/04/30 01:37:04;;;;;;;5.50;4.10;;;;;;;7.26;61.76;99655.58;105927;1254;60473;-71
2023/04/30 01:39:58;;;;;;;6.40;3.50;;;;;;;7.21;62.15;99652.67;105848;1258;60494;-67
2023/04/30 01:42:31;;;;;;;5.50;3.90;;;;;;;7.13;62.29;99650.50;105786;1257;72904;-69
2023/04/30 01:45:27;;;;;;;5.00;3.80;;;;;;;7.09;62.30;99645.57;105856;1260;71421;-69
2023/04/30 01:48:07;;;;;;;5.40;3.80;;;;;;;7.06;62.49;99644.95;105841;1254;72703;-71
2023/04/30 01:51:01;;;;;;;10.70;4.10;;;;;;;7.00;62.76;99641.70;105768;1260;60443;-69
2023/04/30 01:53:32;;;;;;;5.50;3.80;;;;;;;6.92;62.90;99639.66;105912;1254;62268;-70
2023/04/30 01:56:03;;;;;;;6.30;3.50;;;;;;;6.86;63.17;99638.52;105809;1253;71822;-69
2023/04/30 01:58:31;;;;;;;5.80;4.00;;;;;;;6.80;63.37;99637.54;105879;1260;69863;-68
2023/04/30 02:00:58;;;;;;;4.90;3.90;;;;;;;6.77;63.52;99636.31;105863;1258;73626;-69
2023/04/30 02:03:24;;;;;;;6.00;4.20;;;;;;;6.73;63.76;99634.37;105954;1254;60543;-68
2023/04/30 02:05:52;;;;;;;7.80;4.20;;;;;;;6.66;63.81;99634.49;105898;1254;61320;-69
2023/04/30 02:08:18;;;;;;;8.80;4.30;;;;;;;6.59;64.14;99631.70;105948;1253;73479;-67
2023/04/30 02:10:45;;;;;;;7.10;4.50;;;;;;;6.57;64.18;99628.91;105882;1254;70991;-68
2023/04/30 02:13:13;;;;;;;6.50;4.40;;;;;;;6.55;64.40;99623.98;105820;1257;72862;-68
2023/04/30 02:15:39;;;;;;;7.20;5.00;;;;;;;6.52;64.42;99623.90;105818;1254;61842;-69
2023/04/30 02:18:07;;;;;;;9.60;5.90;;;;;;;6.49;64.45;99620.90;105859;1259;61209;-66
2023/04/30 02:20:33;;;;;;;8.10;4.80;;;;;;;6.47;64.53;99621.02;105604;1261;73848;-66
2023/04/30 02:23:00;;;;;;;7.40;5.10;;;;;;;6.47;64.60;99625.16;105766;1267;70112;-69
2023/04/30 02:25:27;;;;;;;9.50;5.10;;;;;;;6.48;64.78;99625.65;105797;1254;71526;-67
2023/04/30 02:27:54;;;;;;;9.20;5.00;;;;;;;6.47;64.52;99622.04;105827;1257;61906;-68
2023/04/30 02:30:20;;;;;;;7.60;5.00;;;;;;;6.45;64.60;99624.16;105852;1255;60469;-67
2023/04/30 02:32:47;;;;;;;5.50;4.10;;;;;;;6.44;64.42;99620.16;105813;1254;71760;-66
2023/04/30 02:35:14;;;;;;;7.60;4.60;;;;;;;6.46;64.69;99623.05;105851;1254;71421;-67
2023/04/30 02:37:41;;;;;;;7.80;5.10;;;;;;;6.47;64.56;99627.63;105540;1256;73883;-68
2023/04/30 02:40:09;;;;;;;7.30;4.50;;;;;;;6.48;64.54;99629.82;105863;1254;60526;-68
2023/04/30 02:42:36;;;;;;;8.00;4.80;;;;;;;6.48;64.49;99629.66;105831;1254;60628;-68
2023/04/30 02:45:03;;;;;;;8.20;4.50;;;;;;;6.48;64.38;99628.04;105821;1254;73738;-67
2023/04/30 02:47:30;;;;;;;7.30;4.80;;;;;;;6.48;64.63;99627.52;105752;1257;71455;-66
2023/04/30 02:49:57;;;;;;;10.00;5.20;;;;;;;6.47;64.84;99625.56;105762;1254;72433;-70
2023/04/30 02:52:27;;;;;;;9.50;4.60;;;;;;;6.46;64.75;99625.10;105849;1257;60621;-70
2023/04/30 02:54:54;;;;;;;7.40;4.20;;;;;;;6.47;64.77;99626.08;105921;1254;60355;-69
2023/04/30 02:57:21;;;;;;;7.60;3.60;;;;;;;6.47;64.93;99624.52;105841;1254;74079;-69
2023/04/30 02:59:48;;;;;;;7.40;4.30;;;;;;;6.45;64.83;99622.97;105896;1258;70607;-68
2023/04/30 03:02:15;;;;;;;6.10;4.10;;;;;;;6.42;65.08;99622.17;105720;1254;71799;-69
2023/04/30 03:04:42;;;;;;;5.50;3.70;;;;;;;6.35;64.92;99618.39;105818;1255;60540;-70
2023/04/30 03:07:09;;;;;;;5.60;3.60;;;;;;;6.33;65.13;99618.77;105971;1254;60440;-69
2023/04/30 03:09:35;;;;;;;6.40;3.40;;;;;;;6.35;65.17;99616.17;105913;1257;73100;-68
2023/04/30 03:12:02;;;;;;;5.90;3.70;;;;;;;6.37;65.25;99610.14;105846;1254;73178;-69
2023/04/30 03:14:30;;;;;;;7.90;4.00;;;;;;;6.40;65.21;99607.40;105841;1257;73620;-68
2023/04/30 03:16:56;;;;;;;7.50;3.90;;;;;;;6.41;65.26;99611.68;105781;1254;60411;-69
2023/04/30 03:19:24;;;;;;;6.20;3.20;;;;;;;6.43;65.09;99606.38;105836;1258;60488;-71
2023/04/30 03:21:51;;;;;;;5.70;3.50;;;;;;;6.43;65.42;99609.54;105743;1254;71375;-69
2023/04/30 03:24:18;;;;;;;6.70;4.20;;;;;;;6.43;65.54;99610.84;105703;1254;71651;-69
2023/04/30 03:26:45;;;;;;;5.60;3.60;;;;;;;6.43;65.46;99607.96;105579;1260;73974;-69
2023/04/30 03:29:12;;;;;;;5.00;3.30;;;;;;;6.45;65.43;99609.17;105688;1254;60622;-71
2023/04/30 03:31:39;;;;;;;5.60;3.20;;;;;;;6.46;65.44;99609.60;105818;1254;60516;-66
2023/04/30 03:34:06;;;;;;;4.30;3.50;;;;;;;6.50;65.18;99609.77;105730;1257;74391;-68
2023/04/30 03:36:33;;;;;;;4.60;3.20;;;;;;;6.54;64.91;99614.35;105726;1253;71353;-69
2023/04/30 03:39:01;;;;;;;5.30;3.20;;;;;;;6.59;64.51;99614.95;105784;1257;73709;-67
2023/04/30 03:41:28;;;;;;;6.30;2.80;;;;;;;6.65;64.57;99614.75;105930;1254;60434;-67
2023/04/30 03:43:54;;;;;;;5.10;3.10;;;;;;;6.70;64.26;99612.86;105766;1254;60428;-69
2023/04/30 03:46:21;;;;;;;9.50;3.70;;;;;;;6.75;64.07;99613.46;105738;1254;74155;-66
2023/04/30 03:48:48;;;;;;;6.30;2.50;;;;;;;6.79;63.89;99610.56;105767;1254;68089;-67
2023/04/30 03:51:15;;;;;;;6.00;3.10;;;;;;;6.83;63.82;99608.61;105797;1257;73071;-70
2023/04/30 03:53:42;;;;;;;5.60;3.10;;;;;;;6.86;63.58;99608.45;105649;1254;60525;-72
2023/04/30 03:56:09;;;;;;;7.10;3.30;;;;;;;6.90;63.29;99600.69;105717;1254;60438;-69
2023/04/30 03:58:36;;;;;;;5.20;3.30;;;;;;;6.96;63.37;99605.80;105905;1257;74636;-71
2023/04/30 04:01:02;;;;;;;6.30;3.00;;;;;;;7.00;63.12;99604.89;105928;1254;73127;-68
2023/04/30 04:03:29;;;;;;;5.60;2.80;;;;;;;7.05;62.90;99608.25;105919;1254;73503;-70
2023/04/30 04:05:56;;;;;;;5.00;3.20;;;;;;;7.10;62.89;99607.39;105927;1257;60415;-70
2023/04/30 04:08:23;;;;;;;5.50;3.20;;;;;;;7.16;62.80;99608.44;105985;1254;60509;-69
2023/04/30 04:10:50;;;;;;;5.00;2.90;;;;;;;7.21;62.64;99611.83;105930;1255;71699;-71
2023/04/30 04:13:16;;;;;;;5.70;2.90;;;;;;;7.26;62.55;99608.50;105870;1254;70609;-71
2023/04/30 04:15:43;;;;;;;5.60;2.90;;;;;;;7.32;62.51;99607.23;105725;1254;70752;-70
2023/04/30 04:18:10;;;;;;;5.00;3.00;;;;;;;7.36;62.47;99606.13;105856;1257;60492;-71
2023/04/30 04:20:38;;;;;;;6.10;2.80;;;;;;;7.41;62.20;99605.67;105642;1258;267151;-68
2023/04/30 04:23:50;;;;;;;6.00;3.10;;;;;;;7.47;62.60;99602.04;102781;1294;600374;-69
2023/04/30 04:26:20;;;;;;;5.40;3.10;;;;;;;7.51;62.42;99601.67;104884;1268;59299;-66
2023/04/30 04:28:47;;;;;;;5.90;3.60;;;;;;;7.55;62.16;99601.61;104830;1266;61127;-69
2023/04/30 04:31:14;;;;;;;6.20;3.30;;;;;;;7.57;62.19;99598.27;104828;1275;74245;-68
2023/04/30 04:33:41;;;;;;;5.20;3.30;;;;;;;7.60;62.08;99596.92;104860;1273;70317;-69
2023/04/30 04:36:08;;;;;;;5.60;3.60;;;;;;;7.63;62.19;99597.95;104929;1269;73510;-72
2023/04/30 04:38:35;;;;;;;7.10;3.70;;;;;;;7.69;62.38;99596.35;105011;1269;157258;-69
2023/04/30 04:41:03;;;;;;;5.30;3.00;;;;;;;7.75;62.25;99604.08;104978;1265;60112;-72
2023/04/30 04:43:30;;;;;;;5.10;3.30;;;;;;;7.80;62.33;99604.05;105119;1262;71864;-70
2023/04/30 04:45:57;;;;;;;5.10;3.20;;;;;;;7.85;62.32;99602.80;105835;1260;70182;-70
2023/04/30 04:48:24;;;;;;;5.60;3.30;;;;;;;7.91;62.22;99606.02;105569;1254;74478;-69
2023/04/30 04:50:51;;;;;;;6.70;3.60;;;;;;;7.96;62.04;99603.51;106022;1260;60208;-71
2023/04/30 04:53:19;;;;;;;6.70;3.40;;;;;;;8.02;61.95;99601.86;106093;1254;62259;-68
2023/04/30 04:55:46;;;;;;;6.00;3.60;;;;;;;8.09;61.83;99604.13;105657;1258;75073;-69
2023/04/30 04:58:14;;;;;;;5.10;3.10;;;;;;;8.16;61.76;99605.53;105765;1255;71410;-69
2023/04/30 05:00:42;;;;;;;5.90;4.00;;;;;;;8.24;61.77;99606.88;105859;1260;74739;-71
2023/04/30 05:03:09;;;;;;;8.00;3.20;;;;;;;8.31;61.54;99606.51;105854;1254;63186;-69
2023/04/30 05:05:36;;;;;;;6.00;3.20;;;;;;;8.39;61.42;99613.41;105818;1253;61063;-72
2023/04/30 05:08:04;;;;;;;8.70;3.40;;;;;;;8.44;61.25;99612.61;105618;1253;73904;-67
2023/04/30 05:10:31;;;;;;;6.40;2.80;;;;;;;8.49;60.95;99607.53;105759;1259;70907;-68
2023/04/30 05:12:58;;;;;;;5.20;3.10;;;;;;;8.52;60.99;99603.84;105897;1259;74512;-66
2023/04/30 05:15:25;;;;;;;4.70;3.10;;;;;;;8.57;60.93;99600.69;105746;1254;59653;-67
2023/04/30 05:17:51;;;;;;;4.00;2.80;;;;;;;8.62;60.75;99597.67;105184;1253;61043;-70
2023/04/30 05:20:18;;;;;;;5.30;2.80;;;;;;;8.68;60.60;99595.11;105575;1253;73851;-71
2023/04/30 05:22:45;;;;;;;4.60;3.00;;;;;;;8.75;60.33;99597.48;105626;1259;71294;-68
2023/04/30 05:25:12;;;;;;;5.00;2.90;;;;;;;8.80;60.33;99602.14;105730;1254;74797;-67
2023/04/30 05:27:39;;;;;;;7.20;3.00;;;;;;;8.90;60.36;99601.34;105586;1259;60628;-68
2023/04/30 05:30:08;;;;;;;4.50;3.00;;;;;;;9.01;60.16;99606.38;105156;1254;61119;-68
2023/04/30 05:32:35;;;;;;;5.40;3.10;;;;;;;9.11;60.06;99600.88;105609;1253;73155;-69
2023/04/30 05:35:02;;;;;;;3.30;2.20;;;;;;;9.21;59.87;99597.06;105644;1259;70265;-69
2023/04/30 05:37:29;;;;;;;4.80;2.50;;;;;;;9.32;59.56;99593.60;105427;1256;74783;-71
2023/04/30 05:39:56;;;;;;;5.40;2.70;;;;;;;9.39;59.00;99592.95;105657;1260;61283;-70
2023/04/30 05:42:23;;;;;;;5.50;2.40;;;;;;;9.46;58.53;99593.15;105599;1258;61387;-69
2023/04/30 05:44:51;;;;;;;5.30;2.40;;;;;;;9.53;58.62;99588.68;105751;1261;74754;-70
2023/04/30 05:47:18;;;;;;;3.40;2.50;;;;;;;9.60;58.41;99590.70;105658;1259;70378;-67
2023/04/30 05:49:45;;;;;;;4.50;2.50;;;;;;;9.69;58.17;99584.17;105621;1254;75015;-70
2023/04/30 05:52:14;;;;;;;4.50;2.40;;;;;;;9.76;57.88;99584.20;105683;1262;61529;-69
2023/04/30 05:54:41;;;;;;;3.40;2.40;;;;;;;9.85;58.02;99576.88;105681;1254;59615;-70
2023/04/30 05:57:08;;;;;;;5.20;2.80;;;;;;;9.97;57.80;99574.70;105673;1257;75103;-71
2023/04/30 05:59:34;;;;;;;5.80;2.70;;;;;;;10.07;57.42;99572.59;105673;1257;68406;-69
2023/04/30 06:02:01;;;;;;;5.20;2.20;;;;;;;10.15;57.29;99569.09;105517;1256;75176;-68
2023/04/30 06:04:28;;;;;;;5.40;2.20;;;;;;;10.24;56.69;99574.61;105693;1260;61047;-70
2023/04/30 06:06:55;;;;;;;5.40;2.60;;;;;;;10.30;56.52;99573.74;105639;1256;59624;-71
2023/04/30 06:09:22;;;;;;;3.30;2.30;;;;;;;10.37;55.83;99570.86;105635;1260;73971;-71
2023/04/30 06:11:50;;;;;;;4.90;2.30;;;;;;;10.44;54.75;99570.05;105773;1262;70930;-69
2023/04/30 06:14:18;;;;;;;3.90;2.40;;;;;;;10.52;54.65;99569.56;105691;1256;74697;-71
2023/04/30 06:16:45;;;;;;;4.40;2.90;;;;;;;10.60;54.55;99567.02;105605;1261;59445;-71
2023/04/30 06:19:12;;;;;;;4.20;2.70;;;;;;;10.71;54.31;99562.65;105638;1254;62242;-69
2023/04/30 06:21:39;;;;;;;3.30;2.70;;;;;;;10.83;53.87;99561.34;105767;1255;74850;-69
2023/04/30 06:24:06;;;;;;;3.60;2.30;;;;;;;10.93;53.18;99558.39;105809;1254;73808;-70
2023/04/30 06:26:33;;;;;;;2.70;2.30;;;;;;;11.02;52.48;99561.23;105691;1254;71707;-71
2023/04/30 06:29:00;;;;;;;3.40;2.50;;;;;;;11.08;51.44;99560.18;105648;1259;59753;-71
2023/04/30 06:31:26;;;;;;;3.60;2.70;;;;;;;11.13;51.24;99557.16;105725;1260;62308;-69
2023/04/30 06:33:53;;;;;;;3.50;2.10;;;;;;;11.18;50.92;99553.25;105576;1256;71571;-71
2023/04/30 06:36:20;;;;;;;4.00;2.80;;;;;;;11.25;50.62;99550.65;105523;1256;71478;-72
2023/04/30 06:38:47;;;;;;;4.50;2.40;;;;;;;11.35;50.24;99549.10;105767;1255;74468;-71
2023/04/30 06:41:15;;;;;;;2.50;1.90;;;;;;;11.43;49.15;99549.68;105760;1260;59750;-71
2023/04/30 06:43:42;;;;;;;2.80;2.30;;;;;;;11.52;48.39;99548.98;105477;1253;60473;-70
2023/04/30 06:46:09;;;;;;;6.40;1.80;;;;;;;11.55;47.11;99546.48;105641;1262;75123;-70
2023/04/30 06:48:36;;;;;;;2.90;1.90;;;;;;;11.56;47.35;99545.81;105674;1260;69513;-68
2023/04/30 06:51:03;;;;;;;3.10;1.90;;;;;;;11.62;47.20;99542.10;105702;1260;75186;-71
2023/04/30 06:53:30;;;;;;;3.30;1.80;;;;;;;11.68;46.38;99536.60;105617;1261;62080;-69
2023/04/30 06:55:58;;;;;;;2.60;1.60;;;;;;;11.72;46.13;99530.89;105691;1255;62364;-69
2023/04/30 06:58:25;;;;;;;3.20;1.70;;;;;;;11.77;45.89;99529.37;105570;1254;72136;-69
2023/04/30 07:00:52;;;;;;;3.60;2.20;;;;;;;11.82;45.79;99530.48;105671;1256;72411;-70
2023/04/30 07:03:20;;;;;;;3.40;2.00;;;;;;;11.86;45.28;99528.12;105560;1256;73045;-71
2023/04/30 07:05:47;;;;;;;5.60;2.40;;;;;;;11.87;44.95;99532.52;105745;1259;62091;-70
2023/04/30 07:08:14;;;;;;;3.30;2.00;;;;;;;11.84;45.02;99522.64;105771;1256;60908;-70
2023/04/30 07:10:41;;;;;;;5.10;1.70;;;;;;;11.84;45.25;99519.27;105716;1255;74972;-72
2023/04/30 07:13:08;;;;;;;2.80;1.90;;;;;;;11.89;45.31;99517.12;105736;1259;71471;-70
2023/04/30 07:15:35;;;;;;;3.60;2.10;;;;;;;11.97;45.16;99516.18;105613;1256;73485;-72
2023/04/30 07:18:03;;;;;;;2.30;2.00;;;;;;;12.06;44.97;99508.52;105679;1256;62049;-71
2023/04/30 07:20:30;;;;;;;3.20;2.00;;;;;;;12.13;44.18;99504.77;105669;1256;59691;-70
2023/04/30 07:22:57;;;;;;;4.20;1.70;;;;;;;12.14;43.64;99499.79;105641;1256;74552;-71
2023/04/30 07:25:24;;;;;;;2.30;1.80;;;;;;;12.14;43.68;99498.60;105749;1260;70724;-70
2023/04/30 07:27:54;;;;;;;4.40;1.80;;;;;;;12.15;43.35;99498.65;105638;1256;74378;-71
2023/04/30 07:30:21;;;;;;;3.60;1.90;;;;;;;12.16;43.18;99491.42;105602;1262;61694;-70
2023/04/30 07:32:50;;;;;;;5.50;2.20;;;;;;;12.16;43.12;99493.59;105723;1257;62777;-68
2023/04/30 07:35:17;;;;;;;4.40;2.30;;;;;;;12.16;43.36;99495.43;105744;1256;73766;-70
2023/04/30 07:37:45;;;;;;;2.90;1.70;;;;;;;12.24;43.31;99492.55;105913;1257;72199;-70
2023/04/30 07:40:12;;;;;;;4.50;2.00;;;;;;;12.27;43.01;99489.14;105877;1260;74411;-72
2023/04/30 07:42:46;;;;;;;4.00;1.60;;;;;;;12.28;42.87;99491.20;105874;1254;62370;-72
2023/04/30 07:45:13;;;;;;;5.50;1.90;;;;;;;12.32;43.10;99489.70;105818;1256;60756;-72
2023/04/30 07:47:40;;;;;;;5.90;1.60;;;;;;;12.35;42.67;99486.79;105776;1260;74834;-71
2023/04/30 07:50:08;;;;;;;3.60;1.80;;;;;;;12.35;42.39;99484.30;105925;1259;71038;-71
2023/04/30 07:52:35;;;;;;;3.10;1.90;;;;;;;12.31;42.35;99488.20;105885;1256;75050;-71
2023/04/30 07:55:02;;;;;;;3.50;2.20;;;;;;;12.24;42.59;99485.10;105901;1256;59729;-73
2023/04/30 07:57:29;;;;;;;5.30;1.50;;;;;;;12.21;42.93;99482.50;105989;1256;62544;-70
2023/04/30 07:59:56;;;;;;;3.80;2.00;;;;;;;12.16;43.03;99477.50;105762;1261;75185;-72
2023/04/30 08:02:23;;;;;;;4.80;2.10;;;;;;;12.17;43.13;99478.73;105863;1259;71082;-70
2023/04/30 08:04:50;;;;;;;3.20;1.80;;;;;;;12.17;43.25;99480.38;105772;1256;72848;-71
2023/04/30 08:07:17;;;;;;;3.50;2.00;;;;;;;12.18;43.02;99479.97;105784;1262;61522;-72
2023/04/30 08:09:44;;;;;;;2.80;1.40;;;;;;;12.20;42.85;99477.29;105987;1253;62507;-71
2023/04/30 08:12:12;;;;;;;3.40;2.00;;;;;;;12.18;43.09;99477.88;105899;1261;75153;-73
2023/04/30 08:14:39;;;;;;;4.80;1.60;;;;;;;12.19;43.08;99475.97;105839;1258;71507;-71
2023/04/30 08:17:06;;;;;;;4.30;2.00;;;;;;;12.19;43.15;99474.87;106100;1256;74781;-72
2023/04/30 08:19:33;;;;;;;5.60;2.60;;;;;;;12.21;43.06;99474.52;106564;1256;62096;-69
2023/04/30 08:22:00;;;;;;;7.10;1.80;;;;;;;12.21;42.85;99473.41;105871;1256;60563;-70
2023/04/30 08:24:27;;;;;;;3.10;1.50;;;;;;;12.18;42.67;99474.80;105927;1259;74969;-68
2023/04/30 08:26:54;;;;;;;4.40;1.80;;;;;;;12.16;42.69;99476.70;105912;1262;71140;-71
2023/04/30 08:29:21;;;;;;;2.40;1.70;;;;;;;12.15;42.82;99478.71;105861;1256;73496;-69
2023/04/30 08:31:48;;;;;;;3.60;1.90;;;;;;;12.15;43.02;99468.92;105873;1258;60531;-70
2023/04/30 08:34:15;;;;;;;4.00;1.80;;;;;;;12.19;43.13;99469.05;105777;1258;62128;-70
2023/04/30 08:36:42;;;;;;;4.90;1.70;;;;;;;12.26;43.13;99470.45;105828;1253;74791;-71
2023/04/30 08:39:10;;;;;;;3.00;1.70;;;;;;;12.36;43.24;99469.43;105833;1256;72210;-72
2023/04/30 08:41:38;;;;;;;3.60;1.60;;;;;;;12.46;42.91;99461.34;105950;1257;74662;-71
2023/04/30 08:44:05;;;;;;;4.90;1.40;;;;;;;12.54;42.42;99458.36;105756;1256;62484;-69
2023/04/30 08:46:34;;;;;;;2.30;1.60;;;;;;;12.62;42.37;99457.91;105877;1258;62315;-69
2023/04/30 08:49:01;;;;;;;6.10;1.80;;;;;;;12.69;42.37;99457.92;105827;1261;75950;-71
2023/04/30 08:51:30;;;;;;;3.30;1.70;;;;;;;12.75;42.19;99455.77;105927;1253;70095;-70
2023/04/30 08:53:57;;;;;;;3.20;2.00;;;;;;;12.82;42.19;99456.41;105847;1261;73170;-70
2023/04/30 08:56:24;;;;;;;5.40;2.10;;;;;;;12.88;42.18;99451.62;105790;1259;62262;-70
2023/04/30 08:58:51;;;;;;;2.20;1.40;;;;;;;12.90;41.71;99448.48;107186;1254;62483;-70
2023/04/30 09:01:18;;;;;;;2.80;1.60;;;;;;;12.91;41.65;99450.10;106664;1253;74586;-70
2023/04/30 09:03:45;;;;;;;3.60;1.60;;;;;;;12.96;41.71;99449.94;105831;1258;71160;-70
2023/04/30 09:06:16;;;;;;;3.00;1.80;;;;;;;13.04;41.55;99445.38;105832;1253;72861;-69
2023/04/30 09:08:47;;;;;;;3.40;1.90;;;;;;;13.08;41.40;99450.83;105888;1256;61555;-70
2023/04/30 09:11:24;;;;;;;3.90;1.60;;;;;;;13.12;41.54;99448.54;105770;1257;61332;-70
2023/04/30 09:13:52;;;;;;;2.50;1.60;;;;;;;13.15;41.38;99446.38;105797;1256;75526;-69
2023/04/30 09:16:20;;;;;;;3.80;1.60;;;;;;;13.12;41.30;99450.17;105858;1256;72119;-71
2023/04/30 09:18:47;;;;;;;3.80;1.80;;;;;;;13.10;41.46;99444.89;105799;1257;74673;-67
2023/04/30 09:21:15;;;;;;;2.80;1.60;;;;;;;13.11;41.38;99442.52;105934;1255;60537;-70
2023/04/30 09:23:56;;;;;;;3.80;1.70;;;;;;;13.07;41.52;99446.30;105820;1253;61096;-71
2023/04/30 09:26:31;;;;;;;3.00;1.80;;;;;;;13.06;41.73;99442.81;106079;1253;75992;-70
2023/04/30 09:28:59;;;;;;;2.60;1.70;;;;;;;13.04;41.93;99448.70;106060;1258;75028;-71
2023/04/30 09:31:27;;;;;;;3.50;1.90;;;;;;;13.04;41.99;99442.66;105948;1256;73602;-72
2023/04/30 09:33:55;;;;;;;2.10;1.50;;;;;;;13.03;42.00;99446.14;105907;1259;61420;-70
2023/04/30 09:36:22;;;;;;;2.10;1.70;;;;;;;13.05;42.10;99444.52;105801;1253;62463;-70
2023/04/30 09:38:48;;;;;;;2.60;1.60;;;;;;;13.07;41.90;99441.05;105716;1260;74198;-73
2023/04/30 09:41:26;;;;;;;2.60;1.40;;;;;;;13.12;42.06;99438.44;105669;1253;71362;-72
2023/04/30 09:43:54;;;;;;;1.80;1.40;;;;;;;13.27;41.98;99438.60;105635;1259;74688;-71
2023/04/30 09:46:28;;;;;;;2.90;1.70;;;;;;;13.39;41.60;99437.95;105969;1253;62281;-71
2023/04/30 09:48:59;;;;;;;4.00;1.70;;;;;;;13.48;41.13;99433.25;105759;1253;60409;-70
2023/04/30 09:51:27;;;;;;;4.20;1.50;;;;;;;13.59;40.88;99435.29;105715;1254;76126;-71
2023/04/30 09:53:54;;;;;;;7.00;2.00;;;;;;;13.75;40.94;99431.05;105976;1260;72654;-72
2023/04/30 09:56:25;;;;;;;2.80;1.60;;;;;;;13.96;40.77;99433.09;105919;1258;71519;-71
2023/04/30 09:58:53;;;;;;;4.90;1.80;;;;;;;14.14;40.39;99427.83;105744;1256;61495;-71
2023/04/30 10:01:21;;;;;;;3.80;2.20;;;;;;;14.33;39.87;99425.44;105722;1262;61902;-71
2023/04/30 10:03:48;;;;;;;4.80;2.10;;;;;;;14.50;39.08;99421.05;105735;1260;72905;-70
2023/04/30 10:06:18;;;;;;;2.60;1.70;;;;;;;14.68;39.07;99427.30;105722;1254;70315;-69
2023/04/30 10:08:47;;;;;;;3.40;1.60;;;;;;;14.85;39.15;99420.21;105802;1254;75007;-69
2023/04/30 10:11:18;;;;;;;2.70;1.40;;;;;;;15.00;38.62;99420.10;105760;1257;62368;-72
2023/04/30 10:13:54;;;;;;;2.60;1.50;;;;;;;15.17;38.52;99418.55;105949;1253;60515;-70
2023/04/30 10:16:30;;;;;;;3.40;1.60;;;;;;;15.29;38.37;99415.63;105917;1254;76305;-69
2023/04/30 10:18:59;;;;;;;2.40;1.70;;;;;;;15.43;38.23;99411.73;105988;1259;71137;-69
2023/04/30 10:21:28;;;;;;;3.60;1.70;;;;;;;15.56;38.17;99411.03;106044;1254;74730;-68
2023/04/30 10:23:55;;;;;;;2.90;2.10;;;;;;;15.67;37.88;99410.79;106358;1261;61064;-72
2023/04/30 10:26:23;;;;;;;2.70;1.80;;;;;;;15.70;37.77;99411.53;105853;1259;60579;-69
2023/04/30 10:28:52;;;;;;;4.40;1.40;;;;;;;15.66;37.62;99410.18;105811;1254;75124;-70
2023/04/30 10:31:19;;;;;;;3.00;1.60;;;;;;;15.63;37.96;99410.48;105909;1253;72297;-71
2023/04/30 10:34:13;;;;;;;3.50;1.60;;;;;;;15.61;37.92;99406.92;105785;1253;73526;-70
2023/04/30 10:36:49;;;;;;;3.60;1.60;;;;;;;15.55;37.75;99403.86;105845;1260;60572;-71
2023/04/30 10:39:20;;;;;;;3.60;2.00;;;;;;;15.44;37.71;99402.98;105929;1259;60698;-72
2023/04/30 10:41:48;;;;;;;2.20;1.70;;;;;;;15.33;37.93;99399.64;105871;1253;74752;-70
2023/04/30 10:44:20;;;;;;;3.20;1.70;;;;;;;15.29;38.07;99398.77;106003;1255;72184;-70
2023/04/30 10:46:47;;;;;;;3.10;2.10;;;;;;;15.16;37.87;99399.16;105884;1253;71607;-69
2023/04/30 10:49:14;;;;;;;2.50;1.90;;;;;;;14.98;38.43;99399.66;105895;1256;61263;-69
2023/04/30 10:51:53;;;;;;;3.30;1.80;;;;;;;14.84;38.48;99393.18;105750;1260;60513;-71
2023/04/30 10:54:26;;;;;;;3.20;1.70;;;;;;;14.68;38.58;99395.30;105590;1254;72982;-67
2023/04/30 10:56:55;;;;;;;;;;;;;;;14.52;38.73;99392.27;105854;1254;68817;-69
2023/04/30 10:59:23;;;;;;;3.30;1.70;;;;;;;14.39;39.01;99392.57;105867;1257;74498;-69
2023/04/30 11:01:57;;;;;;;3.00;1.80;;;;;;;14.30;39.22;99393.91;105612;1260;60600;-69
2023/04/30 11:04:25;;;;;;;2.30;1.70;;;;;;;14.20;39.64;99392.75;105576;1261;61980;-70
2023/04/30 11:06:55;;;;;;;3.20;1.70;;;;;;;14.13;39.73;99384.52;105792;1259;73026;-70
2023/04/30 11:09:37;;;;;;;3.50;1.60;;;;;;;14.11;40.10;99384.59;105795;1259;70103;-69
2023/04/30 11:12:15;;;;;;;3.80;1.60;;;;;;;14.10;40.26;99380.48;105769;1256;72322;-69
2023/04/30 11:14:43;;;;;;;2.60;1.80;;;;;;;14.06;40.25;99382.80;105759;1257;60621;-69
2023/04/30 11:17:21;;;;;;;2.50;1.80;;;;;;;14.07;40.35;99382.84;106037;1259;60518;-73
2023/04/30 11:19:51;;;;;;;1.80;1.50;;;;;;;14.10;40.16;99382.53;105928;1259;75859;-69
2023/04/30 11:22:22;;;;;;;4.40;1.60;;;;;;;14.11;40.17;99383.85;105687;1260;71962;-69
2023/04/30 11:24:54;;;;;;;2.10;1.50;;;;;;;14.16;40.03;99380.00;105929;1256;72087;-68
2023/04/30 11:27:22;;;;;;;2.80;1.80;;;;;;;14.23;39.85;99382.49;105861;1257;62572;-71
2023/04/30 11:29:50;;;;;;;2.50;1.60;;;;;;;14.30;39.78;99380.88;105867;1257;61469;-69
2023/04/30 11:32:18;;;;;;;4.00;2.30;;;;;;;14.43;39.91;99374.95;105792;1259;74776;-69
2023/04/30 11:34:45;;;;;;;3.60;1.90;;;;;;;14.61;39.81;99371.27;105707;1261;72414;-68
2023/04/30 11:37:15;;;;;;;3.70;1.60;;;;;;;14.76;39.42;99372.35;106049;1258;71352;-68